Back O'bowley, United Kingdom
Current Conditions -  °F | °C
As of 12:50 PM on Thursday 23 Oct 2014 (Local Time) from EGNO Reporting Station
Broken Clouds Broken Clouds  
Wind Chill: 13°   Ceiling: 1700
Heat Index: 13°   Visibility: 6mi
Dew Point: 12°   Wind: 8mph
Humidity: 94%   Direction: 170°S
Pressure: 29.91"   Gusts: NA
Location:  53.78°N, 2.41°W
Report Text: EGNO 231150Z 17007KT 9999 FEW011 BKN017 13/12 Q1013
Loading
Personal Weather Stations






























Interactive Weather Map
Tropical Storm Tracking
New forecast layout! Learn more

10-Day Weather Forecast

Advertisements
Track Severe Weather on mobile